Time;durP1;ratioP1;P1;durP2;ratioP2;P2;SDS_P1;SDS_P2;PMS_P1;PMS_P2;Temp;Humidity;BMP_temperature;BMP_pressure;BME280_temperature;BME280_humidity;BME280_pressure;Samples;Min_cycle;Max_cycle;Signal;HPM_P1;HPM_P2
2023/05/16 00:01:54;;;;;;;5.40;2.90;;;;;;;17.88;40.98;100275.63;1582754;91;21103;-65
2023/05/16 00:04:25;;;;;;;3.62;2.67;;;;;;;17.90;40.95;100269.83;1572382;91;21064;-64
2023/05/16 00:06:55;;;;;;;8.20;3.20;;;;;;;17.91;40.96;100273.74;1580650;86;21094;-66
2023/05/16 00:09:26;;;;;;;5.03;3.00;;;;;;;17.91;41.00;100276.52;1650171;87;21475;-66
2023/05/16 00:11:55;;;;;;;4.28;3.00;;;;;;;17.93;41.10;100277.11;1659715;86;21435;-63
2023/05/16 00:14:26;;;;;;;5.87;3.37;;;;;;;17.93;41.27;100278.48;1650033;87;21064;-65
2023/05/16 00:16:57;;;;;;;6.62;2.92;;;;;;;17.93;41.42;100283.20;1576202;91;21660;-64
2023/05/16 00:19:28;;;;;;;4.42;2.98;;;;;;;17.93;41.50;100284.58;1572018;91;21066;-64
2023/05/16 00:21:57;;;;;;;4.65;2.92;;;;;;;17.90;41.69;100281.77;1576255;91;21112;-64
2023/05/16 00:24:27;;;;;;;5.40;3.25;;;;;;;17.87;41.86;100281.42;1583136;91;21482;-65
2023/05/16 00:26:56;;;;;;;5.97;3.08;;;;;;;17.84;41.88;100281.37;1563257;91;21154;-64
2023/05/16 00:29:25;;;;;;;6.85;3.05;;;;;;;17.81;42.12;100285.19;1563096;91;21066;-64
2023/05/16 00:31:56;;;;;;;5.28;3.00;;;;;;;17.74;42.37;100280.63;1523477;94;21202;-64
2023/05/16 00:34:25;;;;;;;5.40;3.20;;;;;;;17.67;42.62;100284.64;1545037;91;21129;-63
2023/05/16 00:36:54;;;;;;;4.72;2.87;;;;;;;17.59;42.89;100290.00;1551413;91;21142;-64
2023/05/16 00:39:24;;;;;;;3.95;3.10;;;;;;;17.56;42.86;100287.72;1574981;91;21086;-62
2023/05/16 00:41:53;;;;;;;5.47;3.37;;;;;;;17.57;43.00;100289.95;1581578;91;21050;-65
2023/05/16 00:44:22;;;;;;;6.15;3.58;;;;;;;17.55;43.08;100290.70;1581841;91;21122;-64
2023/05/16 00:46:54;;;;;;;5.47;3.10;;;;;;;17.53;43.09;100282.64;1581885;90;21139;-66
2023/05/16 00:49:23;;;;;;;5.05;3.15;;;;;;;17.55;43.17;100285.16;1587462;87;21071;-65
2023/05/16 00:51:52;;;;;;;9.30;3.12;;;;;;;17.57;43.22;100278.87;1659547;86;21051;-64
2023/05/16 00:54:24;;;;;;;6.05;3.05;;;;;;;17.58;43.06;100281.39;1633192;86;21063;-65
2023/05/16 00:56:53;;;;;;;5.90;3.10;;;;;;;17.61;43.02;100278.67;1650265;87;21091;-64
2023/05/16 00:59:23;;;;;;;5.45;3.30;;;;;;;17.60;42.94;100283.38;1651388;86;21475;-65
2023/05/16 01:01:53;;;;;;;5.53;3.10;;;;;;;17.59;42.92;100279.46;1625567;86;21043;-64
2023/05/16 01:04:24;;;;;;;5.95;3.10;;;;;;;17.59;43.00;100280.84;1650344;87;21467;-64
2023/05/16 01:06:57;;;;;;;5.62;3.20;;;;;;;17.57;43.04;100283.86;1659902;86;21075;-64
2023/05/16 01:09:30;;;;;;;4.55;2.90;;;;;;;17.53;43.02;100278.48;1659692;86;21050;-64
2023/05/16 01:12:29;;;;;;;4.42;2.80;;;;;;;17.52;42.98;100276.80;1659869;86;21157;-63
2023/05/16 01:15:22;;;;;;;7.08;3.00;;;;;;;17.52;42.99;100278.73;1624711;87;21072;-64
2023/05/16 01:18:10;;;;;;;5.03;2.95;;;;;;;17.50;43.03;100276.75;1659529;86;21075;-65
2023/05/16 01:20:59;;;;;;;4.55;2.72;;;;;;;17.49;43.12;100269.53;1650480;87;21109;-63
2023/05/16 01:23:39;;;;;;;4.92;2.60;;;;;;;17.49;43.27;100272.30;1650685;87;21147;-63
2023/05/16 01:26:24;;;;;;;5.35;2.60;;;;;;;17.48;43.30;100268.69;1650497;87;21064;-65
2023/05/16 01:28:54;;;;;;;5.45;2.60;;;;;;;17.49;43.23;100277.84;1659577;86;21114;-64
2023/05/16 01:31:24;;;;;;;5.30;3.05;;;;;;;17.46;43.38;100268.64;1623851;87;21093;-65
2023/05/16 01:33:53;;;;;;;3.37;2.72;;;;;;;17.43;43.56;100270.81;1659544;86;21086;-64
2023/05/16 01:36:49;;;;;;;6.20;2.98;;;;;;;17.38;43.67;100274.86;1650318;87;21028;-64
2023/05/16 01:39:46;;;;;;;6.37;3.10;;;;;;;17.36;43.91;100273.42;1659999;86;21067;-65
2023/05/16 01:42:16;;;;;;;5.37;2.85;;;;;;;17.32;44.27;100268.92;1550469;92;21818;-64
2023/05/16 01:44:58;;;;;;;5.08;2.90;;;;;;;17.31;44.64;100273.32;1528839;94;21103;-65
2023/05/16 01:47:27;;;;;;;6.33;2.85;;;;;;;17.25;44.80;100265.45;1556800;92;21078;-65
2023/05/16 01:50:12;;;;;;;4.60;2.90;;;;;;;17.19;44.93;100265.05;1550501;92;21500;-64
2023/05/16 01:52:59;;;;;;;6.50;3.25;;;;;;;17.14;45.08;100267.70;1550747;92;21552;-65
2023/05/16 01:55:47;;;;;;;8.45;2.98;;;;;;;17.11;45.26;100265.42;1550827;92;21232;-65
2023/05/16 01:58:21;;;;;;;5.15;2.80;;;;;;;17.09;45.30;100262.06;1533464;92;21252;-65
2023/05/16 02:00:52;;;;;;;6.83;2.77;;;;;;;17.07;45.35;100255.92;1601449;87;21052;-64
2023/05/16 02:03:22;;;;;;;7.85;3.30;;;;;;;17.03;45.52;100258.88;1620740;87;21079;-63
2023/05/16 02:05:52;;;;;;;5.83;3.05;;;;;;;16.98;45.64;100256.84;1653131;86;21016;-65
2023/05/16 02:08:21;;;;;;;6.05;2.62;;;;;;;16.95;45.61;100253.17;1652646;86;21174;-64
2023/05/16 02:10:52;;;;;;;7.45;3.55;;;;;;;16.94;45.60;100252.03;1652935;86;21099;-64
2023/05/16 02:13:22;;;;;;;5.45;3.00;;;;;;;16.92;45.55;100252.82;1653198;86;21082;-64
2023/05/16 02:15:51;;;;;;;6.50;2.83;;;;;;;16.89;45.63;100251.35;1652770;86;21075;-64
2023/05/16 02:18:22;;;;;;;4.62;2.62;;;;;;;16.88;45.56;100259.35;1652921;86;21090;-64
2023/05/16 02:20:51;;;;;;;5.65;3.40;;;;;;;16.86;45.63;100253.77;1652987;86;21111;-65
2023/05/16 02:23:21;;;;;;;5.20;2.85;;;;;;;16.84;45.75;100254.55;1652994;85;21442;-64
2023/05/16 02:25:50;;;;;;;5.03;2.83;;;;;;;16.80;45.65;100259.18;1653553;86;21079;-68
2023/05/16 02:28:21;;;;;;;5.35;2.80;;;;;;;16.79;45.66;100253.34;1634776;87;21028;-64
2023/05/16 02:30:58;;;;;;;6.62;2.75;;;;;;;16.77;45.65;100258.28;1652868;86;21048;-64
2023/05/16 02:33:27;;;;;;;6.33;2.92;;;;;;;16.80;45.65;100244.50;1628350;87;21047;-64
2023/05/16 02:35:57;;;;;;;6.58;3.17;;;;;;;16.83;45.59;100245.95;1651294;87;21051;-63
2023/05/16 02:38:27;;;;;;;4.78;2.98;;;;;;;16.86;45.50;100251.00;1652958;86;21114;-64
2023/05/16 02:40:57;;;;;;;7.00;3.40;;;;;;;16.86;45.48;100249.06;1652435;87;21471;-65
2023/05/16 02:43:26;;;;;;;4.75;3.00;;;;;;;16.90;45.41;100259.11;1652596;86;21046;-63
2023/05/16 02:45:56;;;;;;;5.17;3.00;;;;;;;16.90;45.40;100251.65;1652685;86;21023;-64
2023/05/16 02:48:25;;;;;;;4.72;2.62;;;;;;;16.92;45.34;100259.20;1652676;86;21098;-62
2023/05/16 02:50:54;;;;;;;3.83;2.77;;;;;;;16.94;45.32;100252.88;1650732;87;21019;-63
2023/05/16 02:53:23;;;;;;;6.97;3.00;;;;;;;16.94;45.25;100252.88;1628527;87;21475;-65
2023/05/16 02:55:53;;;;;;;4.92;3.20;;;;;;;16.94;45.26;100253.42;1652538;87;21475;-66
2023/05/16 02:58:22;;;;;;;6.67;2.70;;;;;;;16.91;45.31;100255.29;1651695;86;21097;-63
2023/05/16 03:00:51;;;;;;;5.60;3.17;;;;;;;16.88;45.51;100248.83;1659785;86;21083;-64
2023/05/16 03:03:21;;;;;;;8.13;3.22;;;;;;;16.89;45.42;100247.74;1650137;87;21047;-64
2023/05/16 03:05:50;;;;;;;6.85;3.25;;;;;;;16.87;45.48;100250.75;1625539;86;21130;-64
2023/05/16 03:08:20;;;;;;;7.67;3.00;;;;;;;16.87;45.31;100245.76;1650282;86;21056;-63
2023/05/16 03:10:49;;;;;;;5.37;3.00;;;;;;;16.85;45.35;100253.46;1659258;86;21560;-64
2023/05/16 03:13:21;;;;;;;5.20;3.25;;;;;;;16.83;45.63;100243.18;1555866;90;21544;-63
2023/05/16 03:15:52;;;;;;;8.80;3.02;;;;;;;16.81;45.63;100250.34;1555467;92;21118;-64
2023/05/16 03:18:21;;;;;;;6.05;3.75;;;;;;;16.80;45.81;100256.41;1555440;92;21142;-63
2023/05/16 03:20:51;;;;;;;5.35;2.90;;;;;;;16.78;45.68;100243.91;1555468;92;21134;-64
2023/05/16 03:23:21;;;;;;;6.87;2.90;;;;;;;16.79;45.74;100247.81;1555514;92;21154;-63
2023/05/16 03:25:51;;;;;;;9.35;3.42;;;;;;;16.80;45.70;100244.50;1555565;92;21109;-64
2023/05/16 03:28:22;;;;;;;6.17;3.00;;;;;;;16.81;45.83;100243.42;1555696;92;21065;-65
2023/05/16 03:30:53;;;;;;;7.70;3.22;;;;;;;16.80;45.53;100250.03;1581181;86;21115;-64
2023/05/16 03:33:23;;;;;;;9.00;3.50;;;;;;;16.77;45.60;100244.45;1653719;86;21087;-64
2023/05/16 03:35:52;;;;;;;8.70;3.05;;;;;;;16.76;45.59;100241.38;1624040;87;21150;-63
2023/05/16 03:38:22;;;;;;;3.45;2.90;;;;;;;16.80;45.27;100246.73;1659540;86;21063;-64
2023/05/16 03:40:51;;;;;;;8.80;3.22;;;;;;;16.78;44.92;100243.36;1659793;86;21513;-64
2023/05/16 03:43:21;;;;;;;6.45;2.95;;;;;;;16.77;44.96;100246.38;1574612;90;21112;-64
2023/05/16 03:45:50;;;;;;;8.18;2.85;;;;;;;16.79;45.01;100253.89;1552726;92;21106;-65
2023/05/16 03:48:19;;;;;;;8.83;3.55;;;;;;;16.84;44.86;100255.93;1580989;91;21115;-63
2023/05/16 03:50:50;;;;;;;8.23;3.20;;;;;;;16.86;44.79;100257.37;1574522;91;21074;-65
2023/05/16 03:53:20;;;;;;;7.28;3.05;;;;;;;16.86;44.77;100260.68;1555403;91;21151;-64
2023/05/16 03:55:50;;;;;;;8.00;2.95;;;;;;;16.86;44.85;100263.45;1574759;91;21145;-65
2023/05/16 03:58:19;;;;;;;5.67;3.08;;;;;;;16.87;44.89;100262.36;1574479;91;21090;-65
2023/05/16 04:00:48;;;;;;;5.42;2.98;;;;;;;16.85;44.94;100268.68;1566210;88;21043;-63
2023/05/16 04:03:18;;;;;;;7.50;3.30;;;;;;;16.84;44.88;100275.30;1609207;89;22059;-63
2023/05/16 04:05:48;;;;;;;7.03;3.08;;;;;;;16.84;44.85;100283.06;1552357;92;21158;-64
2023/05/16 04:08:19;;;;;;;4.47;2.72;;;;;;;16.83;44.84;100277.23;1580802;91;21155;-63
2023/05/16 04:10:48;;;;;;;4.75;2.95;;;;;;;16.85;44.85;100286.12;1580710;91;21050;-63
2023/05/16 04:13:18;;;;;;;6.10;3.00;;;;;;;16.84;44.56;100292.75;1524317;92;21079;-63
2023/05/16 04:15:47;;;;;;;5.33;3.08;;;;;;;16.79;44.54;100286.55;1555154;91;21125;-64
2023/05/16 04:18:16;;;;;;;4.70;3.52;;;;;;;16.80;44.36;100291.00;1580657;91;21086;-64
2023/05/16 04:20:47;;;;;;;15.05;4.70;;;;;;;16.84;44.18;100297.44;1580723;91;21054;-64
2023/05/16 04:23:16;;;;;;;7.58;3.30;;;;;;;16.80;44.25;100300.69;1537545;91;21128;-65
2023/05/16 04:25:46;;;;;;;6.00;2.95;;;;;;;16.84;44.10;100304.36;1574747;91;21060;-65
2023/05/16 04:28:17;;;;;;;5.42;3.33;;;;;;;16.88;44.07;100313.86;1555055;91;21069;-64
2023/05/16 04:30:47;;;;;;;10.88;3.40;;;;;;;16.92;43.82;100317.32;1574572;91;21104;-64
2023/05/16 04:33:17;;;;;;;7.78;3.40;;;;;;;16.96;43.49;100320.45;1554803;91;21123;-65
2023/05/16 04:35:47;;;;;;;4.85;2.65;;;;;;;16.95;43.14;100309.08;1574590;91;21076;-64
2023/05/16 04:38:16;;;;;;;7.05;3.20;;;;;;;16.93;42.93;100315.39;1574854;91;21156;-66
2023/05/16 04:40:46;;;;;;;5.35;2.70;;;;;;;16.92;42.94;100315.09;1592031;87;21079;-64
2023/05/16 04:43:15;;;;;;;4.83;2.50;;;;;;;16.94;42.91;100319.84;1659908;86;21043;-66
2023/05/16 04:45:44;;;;;;;8.38;2.77;;;;;;;16.93;42.75;100318.16;1659595;86;21087;-64
2023/05/16 04:48:14;;;;;;;6.20;2.98;;;;;;;16.89;42.77;100317.77;1659584;86;21059;-64
2023/05/16 04:50:44;;;;;;;5.87;3.00;;;;;;;16.86;42.86;100316.87;1650317;87;21528;-65
2023/05/16 04:53:13;;;;;;;4.30;2.90;;;;;;;16.87;42.85;100314.95;1555879;91;21098;-64
2023/05/16 04:55:43;;;;;;;5.12;2.90;;;;;;;16.89;42.75;100313.62;1555527;92;21046;-63
2023/05/16 04:58:12;;;;;;;8.65;3.05;;;;;;;16.88;42.62;100316.09;1555497;92;21062;-64
2023/05/16 05:00:41;;;;;;;8.33;3.20;;;;;;;16.87;42.69;100319.09;1569155;90;21122;-64
2023/05/16 05:03:11;;;;;;;6.37;3.00;;;;;;;16.87;42.67;100315.79;1569831;91;21076;-63
2023/05/16 05:05:41;;;;;;;6.72;2.95;;;;;;;16.90;42.66;100322.77;1569853;91;21689;-65
2023/05/16 05:08:10;;;;;;;17.00;4.78;;;;;;;16.90;42.33;100316.69;1569687;91;21118;-65
2023/05/16 05:10:39;;;;;;;4.40;3.30;;;;;;;16.90;42.32;100315.84;1569876;91;21111;-63
2023/05/16 05:13:11;;;;;;;7.25;3.08;;;;;;;16.93;42.02;100316.78;1538416;91;21515;-65
2023/05/16 05:15:40;;;;;;;4.87;2.50;;;;;;;16.92;42.13;100317.32;1569733;91;21099;-64
2023/05/16 05:18:09;;;;;;;4.30;2.70;;;;;;;16.92;41.82;100317.86;1607782;88;21531;-64
2023/05/16 05:20:38;;;;;;;8.60;2.95;;;;;;;16.95;41.68;100321.53;1629464;88;21498;-65
2023/05/16 05:23:08;;;;;;;4.65;2.67;;;;;;;16.96;42.01;100321.83;1636270;87;21075;-63
2023/05/16 05:25:38;;;;;;;5.03;2.80;;;;;;;16.98;42.56;100316.35;1636581;88;21047;-63
2023/05/16 05:28:07;;;;;;;10.15;3.08;;;;;;;17.01;42.22;100313.64;1551819;92;21184;-63
2023/05/16 05:30:38;;;;;;;6.92;2.83;;;;;;;16.98;41.99;100308.59;1529150;94;21103;-64
2023/05/16 05:33:13;;;;;;;10.55;2.92;;;;;;;16.98;42.19;100299.75;1555745;92;21541;-66
2023/05/16 05:35:42;;;;;;;5.12;2.77;;;;;;;16.98;42.38;100295.59;1533838;92;21568;-63
2023/05/16 05:38:13;;;;;;;5.40;2.85;;;;;;;16.99;42.24;100300.59;1529070;93;21548;-62
2023/05/16 05:40:43;;;;;;;6.80;3.40;;;;;;;17.03;41.93;100303.17;1536314;92;21475;-63
2023/05/16 05:43:13;;;;;;;6.85;2.70;;;;;;;17.05;41.90;100314.84;1529173;94;21128;-66
2023/05/16 05:45:43;;;;;;;8.38;2.70;;;;;;;17.09;41.62;100316.05;1577204;87;21486;-64
2023/05/16 05:48:13;;;;;;;5.67;2.90;;;;;;;17.10;41.82;100312.19;1636181;88;21035;-66
2023/05/16 05:50:42;;;;;;;5.47;2.70;;;;;;;17.07;42.08;100327.90;1605322;87;21100;-63
2023/05/16 05:53:14;;;;;;;5.50;2.80;;;;;;;17.03;42.93;100331.70;1630393;87;21043;-65
2023/05/16 05:55:43;;;;;;;5.15;2.92;;;;;;;17.01;43.58;100335.25;1629735;87;21427;-64
2023/05/16 05:58:13;;;;;;;6.03;2.83;;;;;;;16.95;44.58;100345.90;1636344;87;21130;-64
2023/05/16 06:00:43;;;;;;;5.67;3.08;;;;;;;16.92;45.20;100344.16;1620044;86;21039;-64
2023/05/16 06:03:13;;;;;;;4.70;2.60;;;;;;;16.85;45.11;100342.02;1657595;86;21589;-65
2023/05/16 06:05:43;;;;;;;6.67;2.60;;;;;;;16.80;45.80;100339.97;1637144;86;21106;-64
2023/05/16 06:08:13;;;;;;;6.70;2.80;;;;;;;16.75;46.06;100346.23;1637257;86;21078;-64
2023/05/16 06:10:43;;;;;;;5.75;2.75;;;;;;;16.73;46.27;100342.86;1657437;86;21109;-64
2023/05/16 06:13:13;;;;;;;3.75;2.67;;;;;;;16.69;45.83;100347.73;1657770;86;21047;-66
2023/05/16 06:15:43;;;;;;;8.23;3.12;;;;;;;16.61;45.63;100346.13;1657595;86;21115;-63
2023/05/16 06:18:13;;;;;;;5.67;2.70;;;;;;;16.57;46.17;100337.16;1657376;86;21131;-63
2023/05/16 06:20:43;;;;;;;8.55;3.42;;;;;;;16.55;45.97;100332.41;1657795;86;21047;-63
2023/05/16 06:23:13;;;;;;;6.22;2.90;;;;;;;16.52;46.32;100325.42;1652690;87;21063;-66
2023/05/16 06:25:43;;;;;;;9.28;3.50;;;;;;;16.49;45.92;100322.59;1657849;86;21046;-66
2023/05/16 06:28:12;;;;;;;7.58;3.15;;;;;;;16.48;46.00;100318.69;1657502;86;21063;-63
2023/05/16 06:30:41;;;;;;;4.97;2.90;;;;;;;16.49;45.63;100318.45;1657759;86;21035;-65
2023/05/16 06:33:11;;;;;;;7.42;3.50;;;;;;;16.49;45.64;100308.77;1631418;86;21536;-65
2023/05/16 06:35:40;;;;;;;11.10;3.10;;;;;;;16.52;45.74;100310.21;1657765;86;21083;-65
2023/05/16 06:38:10;;;;;;;7.65;2.85;;;;;;;16.53;45.49;100304.98;1626950;87;21094;-65
2023/05/16 06:40:40;;;;;;;7.20;2.90;;;;;;;16.54;45.16;100296.98;1562322;90;21131;-65
2023/05/16 06:43:10;;;;;;;5.45;3.12;;;;;;;16.57;45.11;100305.34;1561886;90;21095;-64
2023/05/16 06:45:40;;;;;;;9.13;3.40;;;;;;;16.56;44.81;100310.03;1561625;92;21119;-64
2023/05/16 06:48:12;;;;;;;3.22;2.30;;;;;;;16.56;44.52;100303.12;1561754;90;21110;-65
2023/05/16 06:50:41;;;;;;;7.87;3.08;;;;;;;16.57;44.42;100309.49;1536586;92;21151;-65
2023/05/16 06:53:11;;;;;;;6.17;3.00;;;;;;;16.56;43.97;100306.42;1555903;92;21469;-64
2023/05/16 06:55:41;;;;;;;5.05;2.80;;;;;;;16.56;43.56;100296.20;1555772;92;21210;-64
2023/05/16 06:58:11;;;;;;;5.78;3.30;;;;;;;16.57;43.61;100299.27;1579604;86;21071;-65
2023/05/16 07:00:43;;;;;;;11.10;3.40;;;;;;;16.59;43.64;100291.57;1657310;86;21106;-64
2023/05/16 07:03:13;;;;;;;8.98;3.52;;;;;;;16.63;43.50;100294.16;1657687;85;21043;-64
2023/05/16 07:05:43;;;;;;;5.15;3.35;;;;;;;16.66;43.40;100290.95;1623660;86;21055;-64
2023/05/16 07:08:13;;;;;;;8.05;2.90;;;;;;;16.69;43.35;100281.33;1657626;85;21072;-64
2023/05/16 07:10:43;;;;;;;6.28;3.72;;;;;;;16.73;43.31;100293.05;1657715;86;21114;-64
2023/05/16 07:13:13;;;;;;;5.87;3.15;;;;;;;16.75;43.48;100295.03;1657628;85;21087;-64
2023/05/16 07:15:43;;;;;;;12.47;4.58;;;;;;;16.80;43.64;100292.93;1657575;86;21094;-64
2023/05/16 07:18:12;;;;;;;6.30;3.25;;;;;;;16.85;43.71;100297.73;1657546;86;21095;-65
2023/05/16 07:20:42;;;;;;;4.72;2.58;;;;;;;16.90;43.68;100304.77;1657642;86;21102;-65
2023/05/16 07:23:12;;;;;;;5.37;2.85;;;;;;;16.95;43.67;100304.38;1657592;86;21244;-63
2023/05/16 07:25:41;;;;;;;14.00;3.00;;;;;;;17.03;43.58;100307.33;1657804;86;21070;-65
2023/05/16 07:28:12;;;;;;;6.40;2.95;;;;;;;17.09;43.52;100300.81;1657729;86;21070;-64
2023/05/16 07:30:42;;;;;;;7.15;3.35;;;;;;;17.14;43.33;100302.31;1657825;86;21129;-65
2023/05/16 07:33:12;;;;;;;14.00;3.37;;;;;;;17.19;43.38;100296.05;1657838;85;21050;-64
2023/05/16 07:35:42;;;;;;;9.33;2.95;;;;;;;17.23;43.24;100300.85;1657633;85;21444;-68
2023/05/16 07:38:12;;;;;;;4.95;2.45;;;;;;;17.27;43.27;100306.20;1572637;90;21106;-68
2023/05/16 07:40:43;;;;;;;7.85;3.20;;;;;;;17.33;43.11;100316.30;1553987;92;21147;-68
2023/05/16 07:43:13;;;;;;;5.47;2.83;;;;;;;17.38;43.09;100309.48;1577131;91;21062;-67
2023/05/16 07:45:42;;;;;;;9.53;3.30;;;;;;;17.44;42.95;100312.66;1554048;92;21418;-67
2023/05/16 07:48:12;;;;;;;9.05;3.87;;;;;;;17.49;42.98;100324.39;1577153;91;21184;-64
2023/05/16 07:50:43;;;;;;;6.28;3.30;;;;;;;17.57;42.93;100319.05;1555153;89;21118;-67
2023/05/16 07:53:12;;;;;;;7.08;3.15;;;;;;;17.61;42.71;100317.46;1605714;88;21249;-65
2023/05/16 07:55:43;;;;;;;13.18;3.92;;;;;;;17.64;42.45;100325.28;1610048;88;21102;-65
2023/05/16 07:58:13;;;;;;;9.25;3.58;;;;;;;17.62;42.46;100326.08;1578228;91;21078;-66
2023/05/16 08:00:43;;;;;;;11.18;3.52;;;;;;;17.63;42.52;100326.37;1600724;88;21141;-69
2023/05/16 08:03:12;;;;;;;9.90;3.98;;;;;;;17.64;42.76;100342.75;1686726;83;21053;-65
2023/05/16 08:05:43;;;;;;;7.95;3.40;;;;;;;17.67;42.98;100342.83;1713741;83;21060;-66
2023/05/16 08:08:12;;;;;;;7.80;3.50;;;;;;;17.69;43.54;100350.36;1683635;84;21112;-67
2023/05/16 08:10:42;;;;;;;10.50;3.58;;;;;;;17.71;45.38;100352.34;1682910;84;21074;-68
2023/05/16 08:13:12;;;;;;;7.97;3.15;;;;;;;17.70;45.21;100343.73;1669754;86;21498;-67
2023/05/16 08:15:42;;;;;;;6.83;3.52;;;;;;;17.63;45.69;100349.92;1669791;85;21293;-67
2023/05/16 08:18:14;;;;;;;9.55;3.62;;;;;;;17.57;46.15;100352.29;1669768;86;21070;-66
2023/05/16 08:20:45;;;;;;;7.42;3.22;;;;;;;17.51;47.02;100355.46;1670109;86;21050;-67
2023/05/16 08:23:15;;;;;;;5.83;3.60;;;;;;;17.44;46.61;100362.52;1670037;86;21089;-69
2023/05/16 08:25:45;;;;;;;8.00;3.22;;;;;;;17.41;47.37;100355.24;1669873;86;21544;-65
2023/05/16 08:28:19;;;;;;;23.85;4.67;;;;;;;17.38;48.77;100350.19;1700412;84;21075;-66
2023/05/16 08:30:53;;;;;;;10.43;3.98;;;;;;;17.33;50.58;100345.37;1614410;88;21060;-65
2023/05/16 08:33:23;;;;;;;10.58;5.50;;;;;;;17.29;51.86;100343.34;1536829;92;21132;-68
2023/05/16 08:35:52;;;;;;;8.00;4.50;;;;;;;17.24;54.45;100346.84;1559268;92;21053;-69
2023/05/16 08:38:22;;;;;;;7.92;4.20;;;;;;;17.10;55.53;100347.64;1559658;92;21112;-67
2023/05/16 08:40:52;;;;;;;11.08;4.22;;;;;;;17.04;56.89;100354.14;1559450;92;21211;-67
2023/05/16 08:43:22;;;;;;;10.53;4.37;;;;;;;16.99;56.64;100351.80;1559667;92;21092;-67
2023/05/16 08:45:52;;;;;;;10.55;4.25;;;;;;;16.95;57.12;100353.36;1559460;92;21112;-67
2023/05/16 08:48:23;;;;;;;12.45;4.55;;;;;;;16.93;57.59;100344.45;1532510;92;21102;-67
2023/05/16 08:50:52;;;;;;;7.60;3.80;;;;;;;16.89;58.67;100341.30;1546542;90;21278;-67
2023/05/16 08:53:25;;;;;;;9.68;4.30;;;;;;;16.85;57.42;100337.87;1583964;90;21097;-68
2023/05/16 08:55:56;;;;;;;9.48;4.47;;;;;;;16.86;57.88;100336.78;1607506;89;21103;-67
2023/05/16 08:58:25;;;;;;;9.08;4.37;;;;;;;16.91;58.33;100327.25;1597960;89;21104;-67
2023/05/16 09:00:55;;;;;;;11.05;4.65;;;;;;;16.92;57.64;100320.62;1556341;91;21199;-67
2023/05/16 09:03:24;;;;;;;12.28;4.80;;;;;;;16.98;57.79;100318.28;1636740;87;21541;-67
2023/05/16 09:05:54;;;;;;;11.12;4.50;;;;;;;17.07;57.95;100316.83;1546595;93;21090;-68
2023/05/16 09:08:25;;;;;;;9.20;4.17;;;;;;;17.16;56.49;100309.84;1578130;89;21066;-66
2023/05/16 09:10:54;;;;;;;9.30;4.22;;;;;;;17.25;55.06;100320.83;1611350;88;21095;-69
2023/05/16 09:13:25;;;;;;;7.42;4.33;;;;;;;17.35;55.31;100325.20;1556858;92;21150;-69
2023/05/16 09:16:15;;;;;;;8.45;3.83;;;;;;;17.46;54.59;100318.50;1537447;92;21078;-68
2023/05/16 09:18:48;;;;;;;6.17;4.20;;;;;;;17.55;54.30;100326.72;1556966;92;21090;-67
2023/05/16 09:21:17;;;;;;;5.55;3.80;;;;;;;17.68;53.64;100332.05;1488314;96;21152;-67
2023/05/16 09:23:49;;;;;;;12.43;3.77;;;;;;;17.76;53.11;100323.89;1488184;96;21544;-68
2023/05/16 09:26:20;;;;;;;8.03;4.03;;;;;;;17.85;52.70;100331.56;1507172;95;21114;-67
2023/05/16 09:28:54;;;;;;;7.75;4.10;;;;;;;17.92;52.90;100328.09;1511590;95;21173;-67
2023/05/16 09:31:31;;;;;;;7.28;3.92;;;;;;;18.00;52.64;100331.02;1534873;91;21221;-67
2023/05/16 09:33:58;;;;;;;8.20;3.85;;;;;;;18.09;52.03;100329.52;1558022;91;21164;-66
2023/05/16 09:36:28;;;;;;;5.92;3.80;;;;;;;18.19;52.02;100324.70;1581324;91;21090;-66
2023/05/16 09:38:58;;;;;;;6.20;3.50;;;;;;;18.25;50.73;100330.67;1573875;88;21117;-67
2023/05/16 09:41:26;;;;;;;7.28;3.90;;;;;;;18.27;50.44;100339.59;1640845;87;21070;-67
2023/05/16 09:43:56;;;;;;;6.75;3.92;;;;;;;18.28;50.34;100344.88;1640542;87;21066;-68
2023/05/16 09:46:26;;;;;;;5.90;3.42;;;;;;;18.28;50.22;100335.72;1640781;87;21433;-65
2023/05/16 09:48:56;;;;;;;9.48;4.15;;;;;;;18.27;49.61;100331.27;1660622;83;21090;-66
2023/05/16 09:51:26;;;;;;;7.53;4.10;;;;;;;18.27;50.08;100336.81;1723899;83;21083;-67
2023/05/16 09:53:57;;;;;;;7.55;3.98;;;;;;;18.28;49.97;100339.88;1701764;83;21033;-69
2023/05/16 09:56:28;;;;;;;5.60;3.90;;;;;;;18.30;50.36;100338.54;1679400;83;21020;-66
2023/05/16 09:58:58;;;;;;;9.03;4.03;;;;;;;18.29;50.30;100336.02;1701233;83;21116;-68
2023/05/16 10:01:28;;;;;;;10.65;4.17;;;;;;;18.31;50.41;100343.55;1716751;83;21180;-68
2023/05/16 10:03:58;;;;;;;7.35;4.03;;;;;;;18.32;50.25;100337.74;1721194;83;21052;-66
2023/05/16 10:06:28;;;;;;;6.65;4.08;;;;;;;18.36;50.19;100338.08;1685381;84;21041;-67
2023/05/16 10:09:00;;;;;;;6.62;3.42;;;;;;;18.41;50.32;100334.56;1721435;83;21060;-67
2023/05/16 10:11:31;;;;;;;6.08;3.33;;;;;;;18.45;48.66;100331.03;1713770;83;21010;-68
2023/05/16 10:14:01;;;;;;;5.33;3.10;;;;;;;18.49;46.32;100334.14;1685278;84;21271;-69
2023/05/16 10:16:30;;;;;;;6.17;3.10;;;;;;;18.51;45.33;100329.18;1693379;83;21464;-68
2023/05/16 10:19:00;;;;;;;7.10;3.12;;;;;;;18.51;44.96;100333.34;1716567;83;21215;-69
2023/05/16 10:21:30;;;;;;;5.28;3.00;;;;;;;18.52;43.99;100340.58;1713760;83;21461;-66
2023/05/16 10:24:02;;;;;;;6.00;3.42;;;;;;;18.54;42.71;100334.23;1716696;83;21508;-68
2023/05/16 10:26:32;;;;;;;4.83;2.95;;;;;;;18.54;43.00;100328.67;1631973;88;21103;-68
2023/05/16 10:29:03;;;;;;;5.83;3.22;;;;;;;18.61;43.00;100330.74;1629604;88;21181;-67
2023/05/16 10:31:32;;;;;;;4.47;3.15;;;;;;;18.65;41.76;100329.17;1632320;88;21138;-67
2023/05/16 10:34:02;;;;;;;4.80;3.00;;;;;;;18.66;42.28;100323.38;1610653;88;21514;-66
2023/05/16 10:36:32;;;;;;;4.28;2.95;;;;;;;18.67;42.30;100316.72;1607836;88;21531;-65
2023/05/16 10:39:01;;;;;;;5.05;3.10;;;;;;;18.73;42.80;100315.42;1623051;87;22288;-68
2023/05/16 10:41:32;;;;;;;7.80;3.25;;;;;;;18.77;42.43;100313.81;1629879;88;21211;-68
2023/05/16 10:44:03;;;;;;;4.78;2.95;;;;;;;18.76;42.03;100318.53;1643341;84;21042;-68
2023/05/16 10:46:33;;;;;;;11.93;3.42;;;;;;;18.74;42.14;100319.88;1713609;84;21076;-67
2023/05/16 10:49:20;;;;;;;10.03;3.67;;;;;;;18.74;41.68;100318.48;1721250;83;21514;-67
2023/05/16 10:52:07;;;;;;;3.60;2.67;;;;;;;18.68;41.41;100323.95;1718966;83;21058;-74
2023/05/16 10:54:41;;;;;;;6.90;3.02;;;;;;;18.63;41.37;100314.70;1720997;83;21029;-66
2023/05/16 10:57:14;;;;;;;4.92;3.37;;;;;;;18.61;41.35;100330.74;1632196;87;21100;-67
2023/05/16 10:59:50;;;;;;;5.33;3.40;;;;;;;18.60;41.55;100313.25;1629340;88;21060;-67
2023/05/16 11:02:32;;;;;;;5.97;3.15;;;;;;;18.58;41.68;100325.70;1615877;87;21120;-67
2023/05/16 11:05:01;;;;;;;5.00;2.87;;;;;;;18.52;41.60;100321.16;1604143;89;21144;-68
2023/05/16 11:07:34;;;;;;;7.80;3.50;;;;;;;18.49;41.91;100326.66;1604141;88;21164;-68
2023/05/16 11:10:09;;;;;;;5.17;3.00;;;;;;;18.48;41.59;100327.75;1603581;88;21519;-70
2023/05/16 11:12:49;;;;;;;4.20;3.15;;;;;;;18.48;41.93;100323.59;1604042;88;21475;-71
2023/05/16 11:15:27;;;;;;;4.50;3.10;;;;;;;18.53;41.96;100327.84;1603932;89;21131;-70
2023/05/16 11:18:15;;;;;;;7.30;3.30;;;;;;;18.62;41.61;100319.97;1603618;88;21164;-68
2023/05/16 11:20:44;;;;;;;6.97;3.60;;;;;;;18.68;41.58;100311.47;1609399;85;21029;-68
2023/05/16 11:23:20;;;;;;;5.08;3.55;;;;;;;18.77;41.62;100316.05;1679927;85;21035;-69
2023/05/16 11:25:55;;;;;;;5.20;3.30;;;;;;;18.83;41.49;100313.64;1660973;85;21160;-71
2023/05/16 11:28:25;;;;;;;6.75;3.25;;;;;;;18.87;41.18;100303.73;1661130;85;21090;-68
2023/05/16 11:30:57;;;;;;;4.80;3.22;;;;;;;18.87;41.13;100309.84;1684546;85;21035;-68
2023/05/16 11:33:28;;;;;;;5.95;2.98;;;;;;;18.87;41.14;100307.06;1664418;85;21579;-69
2023/05/16 11:36:07;;;;;;;5.83;3.10;;;;;;;18.89;41.19;100313.20;1684949;85;21063;-69
2023/05/16 11:38:42;;;;;;;8.55;3.60;;;;;;;18.91;40.55;100309.08;1664501;85;21031;-72
2023/05/16 11:41:10;;;;;;;4.87;3.02;;;;;;;18.84;40.68;100320.03;1685198;85;21055;-69
2023/05/16 11:43:42;;;;;;;5.92;3.30;;;;;;;18.81;40.90;100310.28;1684875;85;21071;-69